Time;durP1;ratioP1;P1;durP2;ratioP2;P2;SDS_P1;SDS_P2;PMS_P1;PMS_P2;Temp;Humidity;BMP_temperature;BMP_pressure;BME280_temperature;BME280_humidity;BME280_pressure;Samples;Min_cycle;Max_cycle;Signal;HPM_P1;HPM_P2
2023/04/27 03:02:35;;;;;;;0.75;0.70;;;19.40;46.30;;;;;;4891963;23;46369;-59
2023/04/27 03:05:01;;;;;;;0.60;0.60;;;19.40;46.30;;;;;;4952556;28;45282;-58
2023/04/27 03:07:26;;;;;;;1.10;0.80;;;19.40;46.30;;;;;;4933419;28;46266;-58
2023/04/27 03:09:52;;;;;;;0.70;0.70;;;19.40;46.30;;;;;;4956409;28;45410;-58
2023/04/27 03:12:17;;;;;;;1.10;0.80;;;19.40;46.40;;;;;;4934451;28;45225;-59
2023/04/27 03:14:43;;;;;;;0.80;0.73;;;19.40;46.30;;;;;;4936728;28;45240;-59
2023/04/27 03:17:09;;;;;;;1.10;0.70;;;19.40;46.40;;;;;;4938676;28;46784;-59
2023/04/27 03:19:34;;;;;;;0.67;0.67;;;19.40;46.40;;;;;;4950992;28;45206;-58
2023/04/27 03:22:00;;;;;;;0.90;0.70;;;19.40;46.40;;;;;;4927969;28;45350;-59
2023/04/27 03:24:26;;;;;;;1.00;0.90;;;19.40;46.40;;;;;;4921267;28;45410;-59
2023/04/27 03:26:52;;;;;;;1.13;0.80;;;19.40;46.40;;;;;;4921546;28;46246;-59
2023/04/27 03:29:18;;;;;;;0.70;0.60;;;19.40;46.40;;;;;;4953012;28;45033;-59
2023/04/27 03:31:43;;;;;;;1.00;0.80;;;19.40;46.40;;;;;;4945541;28;45621;-59
2023/04/27 03:34:09;;;;;;;1.20;0.70;;;19.40;46.40;;;;;;4930341;28;46105;-59
2023/04/27 03:36:35;;;;;;;0.70;0.63;;;19.40;46.40;;;;;;4942356;28;46961;-59
2023/04/27 03:39:00;;;;;;;0.90;0.80;;;19.40;46.40;;;;;;4949706;28;45375;-59
2023/04/27 03:41:26;;;;;;;1.23;0.83;;;19.40;46.40;;;;;;4943290;28;45802;-59
2023/04/27 03:43:52;;;;;;;0.80;0.63;;;19.40;46.40;;;;;;4935008;28;46032;-59
2023/04/27 03:46:17;;;;;;;0.88;0.70;;;19.40;46.40;;;;;;4940088;28;45233;-59
2023/04/27 03:48:43;;;;;;;0.90;0.70;;;19.40;46.50;;;;;;4947671;28;45427;-57
2023/04/27 03:51:08;;;;;;;1.20;0.80;;;19.40;46.40;;;;;;4944907;28;45558;-59
2023/04/27 03:53:34;;;;;;;0.60;0.60;;;19.30;46.40;;;;;;4953559;28;45490;-59
2023/04/27 03:56:00;;;;;;;1.17;0.70;;;19.40;46.50;;;;;;4949860;28;45211;-59
2023/04/27 03:58:26;;;;;;;0.70;0.70;;;19.30;46.50;;;;;;4913831;28;45704;-59
2023/04/27 04:00:53;;;;;;;0.82;0.70;;;19.30;46.40;;;;;;4937823;28;45428;-59
2023/04/27 04:03:18;;;;;;;1.10;0.90;;;19.30;46.50;;;;;;4949894;28;45638;-60
2023/04/27 04:05:45;;;;;;;0.70;0.63;;;19.30;46.50;;;;;;4947099;28;45360;-59
2023/04/27 04:08:12;;;;;;;1.17;0.90;;;19.30;46.50;;;;;;4945768;28;45391;-59
2023/04/27 04:10:38;;;;;;;1.05;0.75;;;19.30;47.10;;;;;;4944550;28;45383;-61
2023/04/27 04:13:03;;;;;;;0.75;0.70;;;19.30;46.50;;;;;;4922912;28;45099;-59
2023/04/27 04:15:29;;;;;;;0.90;0.60;;;19.30;46.50;;;;;;4938917;28;45531;-60
2023/04/27 04:17:55;;;;;;;1.17;0.63;;;19.30;46.50;;;;;;4931944;28;45665;-59
2023/04/27 04:20:21;;;;;;;1.10;0.77;;;19.30;46.50;;;;;;4924451;28;45167;-58
2023/04/27 04:22:46;;;;;;;0.80;0.80;;;19.30;46.50;;;;;;4954062;28;45703;-59
2023/04/27 04:25:12;;;;;;;0.77;0.67;;;19.30;46.50;;;;;;4946903;28;45615;-58
2023/04/27 04:27:39;;;;;;;1.30;0.85;;;19.30;46.50;;;;;;4899090;28;45558;-59
2023/04/27 04:30:05;;;;;;;1.00;0.70;;;19.30;46.60;;;;;;4930216;28;44767;-64
2023/04/27 04:32:32;;;;;;;1.30;0.80;;;19.30;46.60;;;;;;4908477;28;45136;-56
2023/04/27 04:35:00;;;;;;;1.02;0.77;;;19.30;46.60;;;;;;4926570;28;45245;-59
2023/04/27 04:37:26;;;;;;;1.02;0.80;;;19.30;46.60;;;;;;4915087;28;45060;-57
2023/04/27 04:39:51;;;;;;;1.10;0.87;;;19.20;46.50;;;;;;4930321;28;45857;-57
2023/04/27 04:42:17;;;;;;;0.70;0.70;;;19.20;46.50;;;;;;4921163;28;45737;-60
2023/04/27 04:44:43;;;;;;;1.30;0.95;;;19.30;46.60;;;;;;4930566;28;45271;-60
2023/04/27 04:47:09;;;;;;;0.90;0.70;;;19.30;46.60;;;;;;4924591;28;45563;-62
2023/04/27 04:49:35;;;;;;;0.90;0.70;;;19.20;46.50;;;;;;4932461;28;45070;-60
2023/04/27 04:52:00;;;;;;;0.88;0.70;;;19.20;46.50;;;;;;4949391;28;46085;-57
2023/04/27 04:54:26;;;;;;;0.80;0.70;;;19.20;46.60;;;;;;4935633;28;47208;-58
2023/04/27 04:56:52;;;;;;;0.70;0.63;;;19.20;46.60;;;;;;4927811;28;46172;-59
2023/04/27 04:59:17;;;;;;;1.10;0.73;;;19.20;46.60;;;;;;4953837;28;45577;-59
2023/04/27 05:01:43;;;;;;;0.60;0.60;;;19.20;46.60;;;;;;4950112;28;45608;-58
2023/04/27 05:04:09;;;;;;;0.60;0.60;;;19.20;46.60;;;;;;4972871;28;46252;-60
2023/04/27 05:06:35;;;;;;;1.25;0.80;;;19.20;46.60;;;;;;4966081;28;45719;-58
2023/04/27 05:09:00;;;;;;;0.90;0.80;;;19.20;46.60;;;;;;4948531;28;45897;-59
2023/04/27 05:11:26;;;;;;;1.10;0.70;;;19.20;46.60;;;;;;4958908;28;45573;-57
2023/04/27 05:13:52;;;;;;;0.70;0.70;;;19.20;46.70;;;;;;4946046;28;47041;-59
2023/04/27 05:16:18;;;;;;;0.90;0.80;;;19.20;46.60;;;;;;4962696;28;45610;-59
2023/04/27 05:18:43;;;;;;;1.00;0.70;;;19.20;46.70;;;;;;4932819;28;45364;-59
2023/04/27 05:21:14;;;;;;;1.33;0.70;;;19.20;46.70;;;;;;4944473;28;45235;-59
2023/04/27 05:23:39;;;;;;;0.63;0.63;;;19.20;46.70;;;;;;4947868;28;45740;-60
2023/04/27 05:26:15;;;;;;;0.90;0.70;;;19.20;46.60;;;;;;4942907;28;45212;-59
2023/04/27 05:28:41;;;;;;;0.60;0.60;;;19.20;46.70;;;;;;4936936;28;45582;-59
2023/04/27 05:31:06;;;;;;;0.80;0.80;;;19.20;46.60;;;;;;4928261;28;45237;-59
2023/04/27 05:33:32;;;;;;;0.70;0.70;;;19.20;46.70;;;;;;4948193;28;45976;-58
2023/04/27 05:35:58;;;;;;;0.70;0.70;;;19.20;46.70;;;;;;4961632;28;45152;-58
2023/04/27 05:38:24;;;;;;;0.68;0.60;;;19.20;46.70;;;;;;4942686;28;45427;-59
2023/04/27 05:40:57;;;;;;;0.70;0.70;;;19.20;46.70;;;;;;4966002;28;45095;-61
2023/04/27 05:43:23;;;;;;;1.70;0.60;;;19.20;46.70;;;;;;4951101;28;45006;-59
2023/04/27 05:45:49;;;;;;;0.80;0.80;;;19.20;46.70;;;;;;4961874;28;45311;-61
2023/04/27 05:48:15;;;;;;;0.82;0.80;;;19.20;46.70;;;;;;4944287;28;45284;-59
2023/04/27 05:50:41;;;;;;;1.42;0.70;;;19.20;46.70;;;;;;4937507;28;45532;-59
2023/04/27 05:53:07;;;;;;;0.88;0.80;;;19.10;46.70;;;;;;4949219;28;47139;-59
2023/04/27 05:55:32;;;;;;;0.83;0.70;;;19.20;46.70;;;;;;4924720;28;45438;-58
2023/04/27 05:58:00;;;;;;;2.60;0.80;;;19.20;46.70;;;;;;4947077;28;45007;-62
2023/04/27 06:00:25;;;;;;;1.20;0.80;;;19.20;46.70;;;;;;4935160;28;45148;-60
2023/04/27 06:02:51;;;;;;;1.07;0.80;;;19.20;46.60;;;;;;4942307;28;46266;-58
2023/04/27 06:05:17;;;;;;;1.03;0.90;;;19.20;46.60;;;;;;4963481;28;45572;-59
2023/04/27 06:07:42;;;;;;;1.03;0.80;;;19.20;46.60;;;;;;4960166;28;45611;-61
2023/04/27 06:10:09;;;;;;;1.00;0.90;;;19.20;46.60;;;;;;4949204;28;45490;-61
2023/04/27 06:12:35;;;;;;;1.80;0.90;;;19.20;46.70;;;;;;4946367;28;45773;-61
2023/04/27 06:15:06;;;;;;;1.73;1.00;;;19.20;46.70;;;;;;4973881;28;45264;-61
2023/04/27 06:17:33;;;;;;;1.80;0.70;;;19.20;46.70;;;;;;4923949;28;45661;-62
2023/04/27 06:19:58;;;;;;;1.50;0.80;;;19.20;46.80;;;;;;4931235;28;44820;-62
2023/04/27 06:22:24;;;;;;;0.70;0.60;;;19.20;46.70;;;;;;4957456;28;45647;-61
2023/04/27 06:24:49;;;;;;;0.70;0.70;;;19.30;46.80;;;;;;4951713;28;45295;-60
2023/04/27 06:27:15;;;;;;;1.83;0.70;;;19.30;46.80;;;;;;4965796;28;44730;-60
2023/04/27 06:29:40;;;;;;;0.90;0.70;;;19.30;46.80;;;;;;4949794;28;45229;-59
2023/04/27 06:32:06;;;;;;;2.10;0.80;;;19.30;46.80;;;;;;4932536;28;46136;-59
2023/04/27 06:34:32;;;;;;;1.02;0.80;;;19.40;46.80;;;;;;4941209;28;45366;-59
2023/04/27 06:36:58;;;;;;;1.55;0.70;;;19.50;46.70;;;;;;4965141;28;45233;-61
2023/04/27 06:39:24;;;;;;;3.00;0.80;;;19.60;46.60;;;;;;4962790;28;45084;-58
2023/04/27 06:41:49;;;;;;;1.95;0.70;;;19.80;46.40;;;;;;4956766;28;45704;-60
2023/04/27 06:44:15;;;;;;;1.13;0.68;;;20.00;46.30;;;;;;4967240;28;45646;-59
2023/04/27 06:46:40;;;;;;;1.87;0.80;;;20.10;46.00;;;;;;4910981;28;45571;-60
2023/04/27 06:49:06;;;;;;;0.83;0.63;;;20.30;45.90;;;;;;4962833;28;45533;-60
2023/04/27 06:51:32;;;;;;;1.70;0.60;;;20.40;45.80;;;;;;4938984;28;46133;-59
2023/04/27 06:53:57;;;;;;;0.88;0.55;;;20.50;45.60;;;;;;4961791;28;45565;-59
2023/04/27 06:56:23;;;;;;;1.10;0.60;;;20.70;45.50;;;;;;4939614;28;45491;-58
2023/04/27 06:58:48;;;;;;;0.80;0.55;;;20.80;45.40;;;;;;4948506;28;45663;-58
2023/04/27 07:01:14;;;;;;;1.17;0.60;;;20.90;45.80;;;;;;4957943;28;45944;-59
2023/04/27 07:03:40;;;;;;;0.70;0.60;;;21.10;45.10;;;;;;4968617;28;45200;-58
2023/04/27 07:06:05;;;;;;;1.02;0.68;;;21.20;45.00;;;;;;4938324;28;45417;-60
2023/04/27 07:08:31;;;;;;;0.93;0.70;;;21.30;44.90;;;;;;4947800;28;45303;-58
2023/04/27 07:11:00;;;;;;;0.80;0.60;;;21.40;44.70;;;;;;4941842;28;45013;-59
2023/04/27 07:13:25;;;;;;;0.60;0.60;;;21.50;44.60;;;;;;4968920;28;45498;-59
2023/04/27 07:15:56;;;;;;;3.80;0.60;;;21.60;44.50;;;;;;4932694;28;45528;-58
2023/04/27 07:18:22;;;;;;;1.00;0.60;;;21.70;44.40;;;;;;4943361;28;45292;-61
2023/04/27 07:20:48;;;;;;;1.10;0.80;;;21.80;44.40;;;;;;4957114;28;46117;-59
2023/04/27 07:23:13;;;;;;;0.97;0.77;;;21.90;44.30;;;;;;4969533;28;45540;-60
2023/04/27 07:25:39;;;;;;;0.60;0.50;;;22.00;44.20;;;;;;4959571;28;44798;-59
2023/04/27 07:28:04;;;;;;;1.42;0.70;;;22.10;44.10;;;;;;4969091;28;45556;-60
2023/04/27 07:30:30;;;;;;;1.40;0.73;;;22.20;44.00;;;;;;4936074;28;47334;-59
2023/04/27 07:32:56;;;;;;;0.63;0.53;;;22.30;44.00;;;;;;4965805;28;45160;-60
2023/04/27 07:35:21;;;;;;;2.60;0.53;;;22.40;43.90;;;;;;4943085;28;46094;-59
2023/04/27 07:37:47;;;;;;;1.30;0.50;;;22.40;43.80;;;;;;4966978;28;45535;-58
2023/04/27 07:40:15;;;;;;;0.68;0.63;;;22.50;43.70;;;;;;4964404;28;45187;-61
2023/04/27 07:42:41;;;;;;;1.60;0.70;;;22.60;43.70;;;;;;4932144;28;45494;-59
2023/04/27 07:45:09;;;;;;;0.57;0.50;;;22.60;43.60;;;;;;4969702;28;44939;-60
2023/04/27 07:47:35;;;;;;;0.60;0.60;;;22.80;43.60;;;;;;4912776;28;45126;-59
2023/04/27 07:50:01;;;;;;;0.88;0.55;;;22.80;43.50;;;;;;4948760;28;45255;-60
2023/04/27 07:52:27;;;;;;;2.20;0.60;;;22.90;43.40;;;;;;4942046;28;45571;-58
2023/04/27 07:54:52;;;;;;;1.93;0.80;;;23.00;43.40;;;;;;4947914;28;45845;-58
2023/04/27 07:57:18;;;;;;;1.17;0.57;;;23.10;43.40;;;;;;4931502;28;45333;-59
2023/04/27 07:59:44;;;;;;;0.80;0.70;;;23.10;43.30;;;;;;4952584;28;45723;-59
2023/04/27 08:02:10;;;;;;;1.23;0.60;;;23.20;43.20;;;;;;4960261;28;45188;-60
2023/04/27 08:04:35;;;;;;;1.80;0.50;;;23.30;43.10;;;;;;4955702;28;45650;-60
2023/04/27 08:07:01;;;;;;;0.90;0.50;;;23.40;43.10;;;;;;4946615;28;45909;-59
2023/04/27 08:09:26;;;;;;;0.77;0.60;;;23.40;42.90;;;;;;4936405;28;47326;-60
2023/04/27 08:11:52;;;;;;;2.25;0.55;;;23.50;42.90;;;;;;4966457;28;45590;-59
2023/04/27 08:14:17;;;;;;;1.85;0.50;;;23.60;42.80;;;;;;4973214;28;45494;-59
2023/04/27 08:16:43;;;;;;;0.73;0.52;;;23.70;42.80;;;;;;4961377;28;45475;-60
2023/04/27 08:19:09;;;;;;;0.95;0.60;;;23.70;42.80;;;;;;4948406;28;46042;-60
2023/04/27 08:21:38;;;;;;;0.85;0.60;;;23.80;42.70;;;;;;4926243;28;45697;-59
2023/04/27 08:24:05;;;;;;;0.83;0.60;;;23.80;42.60;;;;;;4948226;28;44785;-60
2023/04/27 08:26:31;;;;;;;0.57;0.55;;;23.80;42.60;;;;;;4969756;28;45587;-62
2023/04/27 08:28:58;;;;;;;1.40;0.50;;;23.90;42.70;;;;;;4945193;28;46064;-60
2023/04/27 08:31:24;;;;;;;2.58;0.68;;;23.90;42.60;;;;;;4958451;28;45564;-60
2023/04/27 08:33:51;;;;;;;1.30;0.60;;;24.00;42.60;;;;;;4951026;28;45398;-58
2023/04/27 08:36:17;;;;;;;1.10;0.47;;;24.00;42.50;;;;;;4947802;28;45815;-60
2023/04/27 08:38:42;;;;;;;1.10;0.63;;;24.10;42.50;;;;;;4951331;28;46283;-59
2023/04/27 08:41:08;;;;;;;1.30;0.50;;;24.10;42.40;;;;;;4945404;28;45715;-58
2023/04/27 08:43:36;;;;;;;0.80;0.57;;;24.20;42.50;;;;;;4973936;28;45557;-59
2023/04/27 08:46:02;;;;;;;1.42;0.57;;;24.20;42.40;;;;;;4930382;28;45129;-60
2023/04/27 08:48:28;;;;;;;0.90;0.73;;;24.30;42.30;;;;;;4946624;28;44949;-59
2023/04/27 08:50:54;;;;;;;1.10;0.60;;;24.30;42.30;;;;;;4943209;28;45351;-61
2023/04/27 08:53:21;;;;;;;0.60;0.60;;;24.40;42.30;;;;;;4950084;28;45303;-61
2023/04/27 08:55:46;;;;;;;0.85;0.40;;;24.40;42.20;;;;;;4925323;28;45527;-60
2023/04/27 08:58:12;;;;;;;1.80;0.60;;;24.50;42.20;;;;;;4969971;28;45828;-60
2023/04/27 09:00:41;;;;;;;2.20;0.50;;;24.50;42.20;;;;;;4941056;28;45304;-62
2023/04/27 09:03:27;;;;;;;0.90;0.60;;;24.60;42.20;;;;;;4969829;28;45258;-60
2023/04/27 09:05:53;;;;;;;1.17;0.50;;;24.60;42.70;;;;;;4969087;28;45317;-61
2023/04/27 09:08:19;;;;;;;0.98;0.52;;;24.70;42.10;;;;;;4950790;28;46047;-61
2023/04/27 09:10:50;;;;;;;0.80;0.43;;;24.70;42.10;;;;;;4941908;28;45862;-62
2023/04/27 09:13:16;;;;;;;1.35;0.55;;;24.70;42.00;;;;;;4966544;28;45539;-59
2023/04/27 09:15:42;;;;;;;0.40;0.40;;;24.80;42.00;;;;;;4957925;28;45664;-60
2023/04/27 09:18:13;;;;;;;0.82;0.52;;;24.80;42.00;;;;;;4970231;28;45264;-60
2023/04/27 09:20:46;;;;;;;1.70;0.50;;;24.80;41.90;;;;;;4925532;28;45556;-59
2023/04/27 09:23:25;;;;;;;0.55;0.43;;;24.90;41.90;;;;;;4952934;28;45692;-60
2023/04/27 09:25:51;;;;;;;0.50;0.50;;;24.90;41.90;;;;;;4949170;28;45083;-61
2023/04/27 09:28:16;;;;;;;1.90;0.70;;;25.00;41.90;;;;;;4967300;28;45325;-62
2023/04/27 09:30:50;;;;;;;2.17;0.70;;;25.10;41.90;;;;;;4960250;28;45296;-62
2023/04/27 09:33:21;;;;;;;0.60;0.50;;;25.10;41.80;;;;;;4954199;28;45081;-59
2023/04/27 09:35:47;;;;;;;1.30;0.52;;;25.10;41.80;;;;;;4944959;28;45440;-59
2023/04/27 09:38:12;;;;;;;0.90;0.50;;;25.20;41.80;;;;;;4932328;28;45575;-59
2023/04/27 09:40:39;;;;;;;1.30;0.55;;;25.20;41.70;;;;;;4936745;28;45388;-60
2023/04/27 09:43:04;;;;;;;0.68;0.40;;;25.30;41.70;;;;;;4954021;28;45350;-62
2023/04/27 09:45:31;;;;;;;0.50;0.40;;;25.30;41.70;;;;;;4919510;28;45548;-61
2023/04/27 09:47:57;;;;;;;1.30;0.52;;;25.40;41.80;;;;;;4935565;28;45826;-60
2023/04/27 09:50:22;;;;;;;0.90;0.47;;;25.40;41.70;;;;;;4959687;28;45652;-62
2023/04/27 09:52:48;;;;;;;1.70;0.60;;;25.50;41.70;;;;;;4940941;28;44794;-62
2023/04/27 09:55:26;;;;;;;0.50;0.40;;;25.50;41.70;;;;;;4944948;28;45729;-65
2023/04/27 09:58:06;;;;;;;0.97;0.47;;;25.50;41.60;;;;;;4943275;28;45529;-59
2023/04/27 10:00:40;;;;;;;1.30;0.63;;;25.50;41.60;;;;;;4929969;28;45257;-58
2023/04/27 10:03:26;;;;;;;1.05;0.55;;;25.50;41.60;;;;;;4949399;28;44747;-59
2023/04/27 10:06:27;;;;;;;1.55;0.63;;;25.40;41.60;;;;;;4942723;28;45282;-60
2023/04/27 10:08:53;;;;;;;1.20;0.60;;;25.40;41.60;;;;;;4966248;28;46217;-60
2023/04/27 10:11:18;;;;;;;0.53;0.50;;;25.30;41.70;;;;;;4917513;28;45823;-61
2023/04/27 10:13:54;;;;;;;1.60;0.60;;;25.30;41.80;;;;;;4965742;28;45288;-57
2023/04/27 10:16:20;;;;;;;1.20;0.45;;;25.20;41.80;;;;;;4960891;28;45211;-60
2023/04/27 10:18:53;;;;;;;1.30;0.60;;;25.20;41.90;;;;;;4946492;28;45599;-58
2023/04/27 10:21:19;;;;;;;1.50;0.40;;;25.20;42.00;;;;;;4962163;28;45034;-58
2023/04/27 10:23:49;;;;;;;1.50;0.60;;;25.10;42.00;;;;;;4948464;28;45942;-59
2023/04/27 10:26:25;;;;;;;0.95;0.50;;;25.10;42.00;;;;;;4936279;28;45510;-58
2023/04/27 10:28:58;;;;;;;0.77;0.50;;;25.10;42.10;;;;;;4951996;28;45472;-59
2023/04/27 10:31:28;;;;;;;0.65;0.50;;;25.00;42.20;;;;;;4940966;28;45278;-59
2023/04/27 10:34:03;;;;;;;1.40;0.70;;;25.00;42.20;;;;;;4946999;28;45272;-59
2023/04/27 10:36:36;;;;;;;0.70;0.52;;;24.90;42.30;;;;;;4946587;28;45113;-59
2023/04/27 10:39:04;;;;;;;0.60;0.50;;;24.90;42.30;;;;;;4954347;28;45343;-59
2023/04/27 10:41:33;;;;;;;0.82;0.60;;;24.90;42.40;;;;;;4942482;28;44987;-60
2023/04/27 10:44:16;;;;;;;0.60;0.50;;;24.90;42.40;;;;;;4945627;28;45286;-61
2023/04/27 10:46:55;;;;;;;2.40;0.60;;;24.80;42.50;;;;;;4942943;28;44756;-60
2023/04/27 10:49:21;;;;;;;1.63;0.52;;;24.80;42.50;;;;;;4936582;28;45214;-59
2023/04/27 10:51:48;;;;;;;0.75;0.45;;;24.80;42.60;;;;;;4942938;28;44754;-61
2023/04/27 10:54:13;;;;;;;0.82;0.50;;;24.70;42.60;;;;;;4944168;28;44863;-64
2023/04/27 10:56:39;;;;;;;1.00;0.60;;;24.70;42.80;;;;;;4961559;28;45506;-63
2023/04/27 10:59:05;;;;;;;1.50;0.68;;;24.70;42.30;;;;;;4947752;28;46790;-63
2023/04/27 11:01:30;;;;;;;1.30;0.60;;;24.60;42.50;;;;;;4954347;23;44909;-65
2023/04/27 11:03:57;;;;;;;1.23;0.50;;;24.60;42.70;;;;;;4965658;28;45253;-62
2023/04/27 11:06:23;;;;;;;0.55;0.55;;;24.60;42.80;;;;;;4912840;28;45321;-62
2023/04/27 11:08:48;;;;;;;1.20;0.50;;;24.50;42.80;;;;;;4949023;28;45930;-62
2023/04/27 11:11:14;;;;;;;1.80;0.60;;;24.50;42.90;;;;;;4964659;28;44923;-63
2023/04/27 11:13:42;;;;;;;1.70;0.73;;;24.50;43.00;;;;;;4949284;28;45904;-62
2023/04/27 11:16:07;;;;;;;1.20;0.60;;;24.50;43.00;;;;;;4941200;28;45209;-64
2023/04/27 11:18:35;;;;;;;0.57;0.50;;;24.40;43.00;;;;;;4951268;28;46783;-63
2023/04/27 11:21:19;;;;;;;1.10;0.70;;;24.40;43.10;;;;;;4952200;28;45392;-63
2023/04/27 11:23:44;;;;;;;0.57;0.50;;;24.40;43.20;;;;;;4958016;28;45189;-63
2023/04/27 11:26:17;;;;;;;1.03;0.60;;;24.40;43.20;;;;;;4952317;28;45707;-61
2023/04/27 11:28:44;;;;;;;1.00;0.50;;;24.40;43.30;;;;;;4955642;28;45983;-61
2023/04/27 11:31:10;;;;;;;0.82;0.60;;;24.40;43.40;;;;;;4936165;28;45192;-61
2023/04/27 11:33:36;;;;;;;0.95;0.55;;;24.30;43.40;;;;;;4957887;28;46456;-63
2023/04/27 11:36:02;;;;;;;0.80;0.70;;;24.30;43.40;;;;;;4934945;28;44797;-62
2023/04/27 11:38:33;;;;;;;0.67;0.50;;;24.30;43.50;;;;;;4977049;28;46085;-62
2023/04/27 11:41:04;;;;;;;2.53;0.60;;;24.30;43.50;;;;;;4964458;28;45420;-60
2023/04/27 11:43:30;;;;;;;2.40;0.65;;;24.30;43.60;;;;;;4974284;28;45155;-61
2023/04/27 11:45:57;;;;;;;1.45;0.73;;;24.20;43.60;;;;;;4914754;28;44695;-61
2023/04/27 11:48:23;;;;;;;1.00;0.57;;;24.20;43.60;;;;;;4975539;28;46089;-61
2023/04/27 11:50:49;;;;;;;1.80;0.70;;;24.20;43.70;;;;;;4966102;28;45146;-61
2023/04/27 11:53:14;;;;;;;1.80;0.60;;;24.20;43.70;;;;;;4975294;28;45352;-60
2023/04/27 11:55:40;;;;;;;1.13;0.60;;;24.20;43.80;;;;;;4969573;28;45349;-61
2023/04/27 11:58:12;;;;;;;1.47;0.50;;;24.10;43.80;;;;;;4940184;28;47334;-61
2023/04/27 12:00:38;;;;;;;1.40;0.60;;;24.10;43.80;;;;;;4950432;28;45277;-61
2023/04/27 12:03:04;;;;;;;0.73;0.60;;;24.10;43.90;;;;;;4954174;28;45836;-61
2023/04/27 12:05:29;;;;;;;1.30;0.60;;;24.10;44.00;;;;;;4951485;28;45975;-62
2023/04/27 12:07:55;;;;;;;2.50;0.80;;;24.10;44.00;;;;;;4955871;28;45517;-62
2023/04/27 12:10:20;;;;;;;1.10;0.67;;;24.10;44.00;;;;;;4952430;28;44708;-62
2023/04/27 12:12:46;;;;;;;1.83;0.63;;;24.00;44.00;;;;;;4969869;28;44706;-61
2023/04/27 12:15:11;;;;;;;0.93;0.60;;;24.00;44.10;;;;;;4953968;28;45218;-62
2023/04/27 12:17:38;;;;;;;1.40;0.70;;;24.00;44.10;;;;;;4969408;28;46303;-59
2023/04/27 12:20:05;;;;;;;1.40;0.80;;;24.00;44.20;;;;;;4952560;28;45144;-60
2023/04/27 12:22:30;;;;;;;0.95;0.60;;;24.00;44.20;;;;;;4927069;28;45247;-61
2023/04/27 12:24:56;;;;;;;0.80;0.60;;;24.00;44.30;;;;;;4975324;28;45351;-60
2023/04/27 12:27:22;;;;;;;1.67;0.50;;;24.00;44.30;;;;;;4943644;28;46248;-60
2023/04/27 12:29:47;;;;;;;1.27;0.57;;;24.00;44.40;;;;;;4963239;28;46283;-60
2023/04/27 12:32:13;;;;;;;1.58;0.57;;;24.00;44.40;;;;;;4964561;28;46221;-61
2023/04/27 12:34:38;;;;;;;0.68;0.40;;;23.90;44.40;;;;;;4939585;28;45443;-60
2023/04/27 12:37:05;;;;;;;0.57;0.47;;;23.90;44.50;;;;;;4968487;28;45326;-62
2023/04/27 12:39:30;;;;;;;0.73;0.55;;;23.90;45.00;;;;;;4954443;28;45295;-61
2023/04/27 12:41:57;;;;;;;3.05;0.70;;;23.90;44.50;;;;;;4945683;28;44988;-62
2023/04/27 12:44:22;;;;;;;1.30;0.70;;;23.90;44.50;;;;;;4954323;28;45580;-62
2023/04/27 12:46:48;;;;;;;3.00;0.83;;;23.90;44.60;;;;;;4950870;28;45337;-61
2023/04/27 12:49:14;;;;;;;1.83;0.63;;;23.90;44.60;;;;;;4958762;28;45354;-61
2023/04/27 12:51:40;;;;;;;1.60;0.60;;;23.90;44.60;;;;;;4968586;28;45188;-59
2023/04/27 12:54:08;;;;;;;1.42;0.70;;;23.90;44.60;;;;;;4941619;28;45041;-61
2023/04/27 12:56:34;;;;;;;1.02;0.80;;;23.90;44.70;;;;;;4954129;28;45385;-60
2023/04/27 12:58:59;;;;;;;2.00;0.63;;;23.90;44.70;;;;;;4955774;28;45226;-62
2023/04/27 13:01:26;;;;;;;1.58;0.50;;;23.90;44.70;;;;;;4991673;22;46210;-69
2023/04/27 13:03:57;;;;;;;1.30;0.65;;;23.80;44.70;;;;;;4963836;28;45400;-69
2023/04/27 13:06:23;;;;;;;2.33;0.60;;;23.80;44.70;;;;;;4949177;28;45627;-72
2023/04/27 13:08:49;;;;;;;1.00;0.60;;;23.80;44.80;;;;;;4973313;28;45257;-73
2023/04/27 13:11:15;;;;;;;1.85;0.60;;;23.80;44.80;;;;;;4942394;28;45430;-71
2023/04/27 13:13:43;;;;;;;0.90;0.60;;;23.80;44.80;;;;;;4991504;28;44777;-72
2023/04/27 13:16:09;;;;;;;2.08;0.50;;;23.80;44.90;;;;;;4970197;28;46023;-69
2023/04/27 13:18:34;;;;;;;1.33;0.60;;;23.80;44.90;;;;;;4972047;28;45280;-68
2023/04/27 13:21:02;;;;;;;1.40;0.60;;;23.80;44.90;;;;;;4968957;28;45530;-69
2023/04/27 13:23:28;;;;;;;1.15;0.55;;;23.80;45.00;;;;;;4950352;28;44976;-70
2023/04/27 13:25:54;;;;;;;2.47;0.70;;;23.80;45.00;;;;;;4970980;28;46372;-68
2023/04/27 13:28:19;;;;;;;1.40;0.70;;;23.70;45.00;;;;;;4968377;28;46618;-69
2023/04/27 13:30:47;;;;;;;0.73;0.57;;;23.70;45.00;;;;;;4973218;28;44989;-73
2023/04/27 13:33:13;;;;;;;1.40;0.87;;;23.70;45.00;;;;;;4979837;28;44621;-75
2023/04/27 13:35:39;;;;;;;1.25;0.70;;;23.80;45.10;;;;;;4971092;28;46172;-68
2023/04/27 13:38:05;;;;;;;1.60;0.70;;;23.70;45.00;;;;;;4993866;28;45237;-72
2023/04/27 13:40:30;;;;;;;0.60;0.57;;;23.70;45.00;;;;;;4963915;28;45313;-69
2023/04/27 13:42:56;;;;;;;1.10;0.60;;;23.70;45.10;;;;;;4986878;28;45634;-69
2023/04/27 13:45:21;;;;;;;1.37;0.70;;;23.70;45.10;;;;;;4951031;28;46517;-70
2023/04/27 13:47:47;;;;;;;2.33;0.80;;;23.70;45.10;;;;;;4954064;28;45654;-69
2023/04/27 13:50:13;;;;;;;1.38;0.70;;;23.70;45.10;;;;;;4966661;28;45241;-69
2023/04/27 13:52:39;;;;;;;0.68;0.57;;;23.70;45.20;;;;;;4967610;28;45670;-70
2023/04/27 13:55:09;;;;;;;1.03;0.70;;;23.70;45.20;;;;;;4969762;28;45388;-68
2023/04/27 13:57:34;;;;;;;0.88;0.68;;;23.70;45.30;;;;;;4953928;28;44894;-68
2023/04/27 14:00:00;;;;;;;1.43;0.70;;;23.70;45.30;;;;;;4955023;28;45412;-68
2023/04/27 14:02:27;;;;;;;1.00;0.53;;;23.70;45.30;;;;;;4940439;28;45198;-71
2023/04/27 14:04:55;;;;;;;2.75;0.90;;;23.70;45.40;;;;;;4936817;28;45315;-70
2023/04/27 14:07:21;;;;;;;1.65;0.60;;;23.60;45.40;;;;;;4983769;28;44725;-74
2023/04/27 14:09:47;;;;;;;2.28;0.60;;;23.60;45.40;;;;;;4963372;28;45572;-73
2023/04/27 14:12:13;;;;;;;0.90;0.60;;;23.70;45.40;;;;;;4967661;28;45738;-68
2023/04/27 14:14:38;;;;;;;0.88;0.70;;;23.70;45.40;;;;;;4973015;28;45492;-69
2023/04/27 14:17:04;;;;;;;1.80;0.70;;;23.70;45.40;;;;;;4956690;28;45760;-69
2023/04/27 14:19:30;;;;;;;0.70;0.60;;;23.70;45.40;;;;;;4988255;28;44962;-68
2023/04/27 14:21:56;;;;;;;2.38;0.63;;;23.60;45.40;;;;;;4959812;28;45551;-68
2023/04/27 14:24:21;;;;;;;1.07;0.63;;;23.60;45.50;;;;;;4974460;28;44860;-69
2023/04/27 14:26:48;;;;;;;2.27;0.70;;;23.60;45.50;;;;;;4933281;28;45032;-69
2023/04/27 14:29:14;;;;;;;1.42;0.68;;;23.60;45.50;;;;;;4987965;28;45338;-69
2023/04/27 14:31:39;;;;;;;1.93;0.50;;;23.60;45.80;;;;;;4971650;28;45241;-75
2023/04/27 14:34:05;;;;;;;1.53;0.63;;;23.60;45.60;;;;;;4960892;28;45442;-72
2023/04/27 14:36:32;;;;;;;1.60;0.52;;;23.60;45.60;;;;;;4950694;28;45259;-73
2023/04/27 14:38:58;;;;;;;1.35;0.70;;;23.50;45.60;;;;;;4984861;28;44782;-72
2023/04/27 14:41:24;;;;;;;2.60;0.77;;;23.60;45.60;;;;;;4962923;28;45591;-73
2023/04/27 14:43:50;;;;;;;0.93;0.63;;;23.60;45.70;;;;;;4980784;28;45269;-72
2023/04/27 14:46:16;;;;;;;3.00;0.60;;;23.60;45.70;;;;;;4971237;28;44950;-72
2023/04/27 14:48:41;;;;;;;0.90;0.70;;;23.50;45.60;;;;;;4964719;28;45039;-72
2023/04/27 14:51:07;;;;;;;0.97;0.53;;;23.60;45.70;;;;;;4969129;28;45079;-69
2023/04/27 14:53:32;;;;;;;1.87;0.80;;;23.60;45.70;;;;;;4989184;28;45226;-74
2023/04/27 14:55:58;;;;;;;1.20;0.80;;;23.50;45.70;;;;;;4969876;28;45286;-74
2023/04/27 14:58:24;;;;;;;2.20;0.80;;;23.50;45.70;;;;;;4967746;28;45627;-74
2023/04/27 15:00:50;;;;;;;1.45;0.75;;;23.50;45.80;;;;;;4963505;28;45576;-75
2023/04/27 15:03:18;;;;;;;1.80;0.60;;;23.50;45.70;;;;;;4960287;28;44970;-74
2023/04/27 15:05:44;;;;;;;1.60;0.63;;;23.50;45.80;;;;;;4969454;28;45273;-68
2023/04/27 15:08:10;;;;;;;1.35;0.73;;;23.50;45.80;;;;;;4959294;28;44873;-68
2023/04/27 15:10:36;;;;;;;1.00;0.67;;;23.50;45.80;;;;;;4980558;28;45294;-69
2023/04/27 15:13:01;;;;;;;1.57;0.80;;;23.50;45.80;;;;;;4959987;28;46246;-69
2023/04/27 15:15:27;;;;;;;1.30;0.70;;;23.50;45.80;;;;;;4977767;28;44916;-74
2023/04/27 15:17:53;;;;;;;1.10;0.67;;;23.50;45.80;;;;;;4961366;28;45730;-71
2023/04/27 15:20:19;;;;;;;0.83;0.50;;;23.50;45.90;;;;;;4973642;28;44653;-75
2023/04/27 15:22:44;;;;;;;0.80;0.50;;;23.50;45.90;;;;;;4968470;28;46455;-74
2023/04/27 15:25:10;;;;;;;1.10;0.70;;;23.50;45.90;;;;;;4985000;28;45204;-73
2023/04/27 15:27:36;;;;;;;0.90;0.50;;;23.50;45.90;;;;;;4973788;28;45284;-71
2023/04/27 15:30:02;;;;;;;1.80;0.70;;;23.50;45.90;;;;;;4946305;28;44785;-74
2023/04/27 15:32:29;;;;;;;1.63;0.60;;;23.40;45.90;;;;;;4944461;28;45208;-74
2023/04/27 15:34:58;;;;;;;0.90;0.50;;;23.50;46.00;;;;;;4987987;28;45540;-75
2023/04/27 15:37:27;;;;;;;0.60;0.50;;;23.40;46.00;;;;;;4965240;28;45270;-74
2023/04/27 15:39:56;;;;;;;1.00;0.60;;;23.40;46.00;;;;;;4962897;28;45075;-74
2023/04/27 15:42:22;;;;;;;1.65;0.70;;;23.50;46.10;;;;;;4965352;28;45289;-73
2023/04/27 15:44:48;;;;;;;0.93;0.70;;;23.40;46.00;;;;;;4964343;28;45257;-74
2023/04/27 15:47:14;;;;;;;0.77;0.60;;;23.40;46.00;;;;;;4951687;28;45290;-73